Time,TemperatureF,DewpointF,PressureIn,WindDirection,WindDirectionDegrees,WindSpeedMPH,WindSpeedGustMPH,Humidity,HourlyPrecipIn,Conditions,Clouds,dailyrainin,SolarRadiationWatts/m^2,SoftwareType,DateUTC
2013-08-18 00:22:00,67.0,66.0,-100.00,SSW,202,19.0,28.0,97,0.00,,,0.00,0.000000,,2013-08-18 05:22:00,
2013-08-18 00:33:00,67.0,66.0,-100.00,SSW,202,19.0,28.0,97,0.00,,,0.00,0.000000,,2013-08-18 05:33:00,
2013-08-18 00:42:00,67.0,66.0,-100.00,SSW,202,19.0,28.0,97,0.00,,,0.00,0.000000,,2013-08-18 05:42:00,
2013-08-18 00:52:00,67.0,66.0,-100.00,SSW,202,19.0,28.0,97,0.00,,,0.00,0.000000,,2013-08-18 05:52:00,
2013-08-18 01:21:00,66.0,65.0,-100.00,SSW,204,14.0,23.0,98,0.00,,,0.00,0.000000,,2013-08-18 06:21:00,
2013-08-18 01:32:00,66.0,65.0,-100.00,SSW,204,14.0,23.0,98,0.00,,,0.00,0.000000,,2013-08-18 06:32:00,
2013-08-18 01:42:00,66.0,65.0,-100.00,SSW,204,14.0,23.0,98,0.00,,,0.00,0.000000,,2013-08-18 06:42:00,
2013-08-18 01:52:00,66.0,65.0,-100.00,SSW,204,14.0,23.0,98,0.00,,,0.00,0.000000,,2013-08-18 06:52:00,
2013-08-18 02:22:00,66.0,65.0,-100.00,SSW,205,16.0,25.0,98,0.00,,,0.00,0.000000,,2013-08-18 07:22:00,
2013-08-18 02:32:00,66.0,65.0,-100.00,SSW,205,16.0,25.0,98,0.00,,,0.00,0.000000,,2013-08-18 07:32:00,
2013-08-18 02:42:00,66.0,65.0,-100.00,SSW,205,16.0,25.0,98,0.00,,,0.00,0.000000,,2013-08-18 07:42:00,
2013-08-18 02:52:00,66.0,65.0,-100.00,SSW,205,16.0,25.0,98,0.00,,,0.00,0.000000,,2013-08-18 07:52:00,
2013-08-18 03:21:00,65.0,64.0,-100.00,SSW,209,17.0,23.0,98,0.00,,,0.00,0.000000,,2013-08-18 08:21:00,
2013-08-18 03:32:00,65.0,64.0,-100.00,SSW,209,17.0,23.0,98,0.00,,,0.00,0.000000,,2013-08-18 08:32:00,
2013-08-18 03:42:00,65.0,64.0,-100.00,SSW,209,17.0,23.0,98,0.00,,,0.00,0.000000,,2013-08-18 08:42:00,
2013-08-18 03:52:00,65.0,64.0,-100.00,SSW,209,17.0,23.0,98,0.00,,,0.00,0.000000,,2013-08-18 08:52:00,
2013-08-18 04:21:00,65.0,64.0,-100.00,SSW,210,17.0,24.0,97,0.00,,,0.00,0.000000,,2013-08-18 09:21:00,
2013-08-18 04:33:00,65.0,64.0,-100.00,SSW,210,17.0,24.0,97,0.00,,,0.00,0.000000,,2013-08-18 09:33:00,
2013-08-18 04:43:00,65.0,64.0,-100.00,SSW,210,17.0,24.0,97,0.00,,,0.00,0.000000,,2013-08-18 09:43:00,
2013-08-18 04:53:00,65.0,64.0,-100.00,SSW,210,17.0,24.0,97,0.00,,,0.00,0.000000,,2013-08-18 09:53:00,
2013-08-18 05:23:00,65.0,64.0,-100.00,SSW,204,17.0,25.0,98,0.00,,,0.00,0.000000,,2013-08-18 10:23:00,
2013-08-18 05:32:00,65.0,64.0,-100.00,SSW,204,17.0,25.0,98,0.00,,,0.00,0.000000,,2013-08-18 10:32:00,
2013-08-18 05:42:00,65.0,64.0,-100.00,SSW,204,17.0,25.0,98,0.00,,,0.00,0.000000,,2013-08-18 10:42:00,
2013-08-18 05:52:00,65.0,64.0,-100.00,SSW,204,17.0,25.0,98,0.00,,,0.00,0.000000,,2013-08-18 10:52:00,
2013-08-18 06:22:00,64.0,63.0,-100.00,SSW,211,17.0,23.0,97,0.00,,,0.00,0.000000,,2013-08-18 11:22:00,
2013-08-18 06:32:00,64.0,63.0,-100.00,SSW,211,17.0,23.0,97,0.00,,,0.00,0.000000,,2013-08-18 11:32:00,
2013-08-18 06:42:00,64.0,63.0,-100.00,SSW,211,17.0,23.0,97,0.00,,,0.00,0.000000,,2013-08-18 11:42:00,
2013-08-18 06:52:00,64.0,63.0,-100.00,SSW,211,17.0,23.0,97,0.00,,,0.00,0.000000,,2013-08-18 11:52:00,
2013-08-18 07:21:00,64.0,63.0,-100.00,SW,214,18.0,28.0,96,0.00,,,0.00,1.000000,,2013-08-18 12:21:00,
2013-08-18 07:31:00,64.0,63.0,-100.00,SW,214,18.0,28.0,96,0.00,,,0.00,1.000000,,2013-08-18 12:31:00,
2013-08-18 07:42:00,64.0,63.0,-100.00,SW,214,18.0,28.0,96,0.00,,,0.00,1.000000,,2013-08-18 12:42:00,
2013-08-18 07:52:00,64.0,63.0,-100.00,SW,214,18.0,28.0,96,0.00,,,0.00,1.000000,,2013-08-18 12:52:00,
2013-08-18 08:21:00,65.0,64.0,-100.00,SW,214,20.0,27.0,96,0.00,,,0.00,47.000000,,2013-08-18 13:21:00,
2013-08-18 08:32:00,65.0,64.0,-100.00,SW,214,20.0,27.0,96,0.00,,,0.00,47.000000,,2013-08-18 13:32:00,
2013-08-18 08:42:00,65.0,64.0,-100.00,SW,214,20.0,27.0,96,0.00,,,0.00,47.000000,,2013-08-18 13:42:00,
2013-08-18 08:52:00,65.0,64.0,-100.00,SW,214,20.0,27.0,96,0.00,,,0.00,47.000000,,2013-08-18 13:52:00,
2013-08-18 09:21:00,67.0,65.0,-100.00,SSW,212,20.0,27.0,92,0.00,,,0.00,125.000000,,2013-08-18 14:21:00,
2013-08-18 09:32:00,67.0,65.0,-100.00,SSW,212,20.0,27.0,92,0.00,,,0.00,125.000000,,2013-08-18 14:32:00,
2013-08-18 09:42:00,67.0,65.0,-100.00,SSW,212,20.0,27.0,92,0.00,,,0.00,125.000000,,2013-08-18 14:42:00,
2013-08-18 09:53:00,67.0,65.0,-100.00,SSW,212,20.0,27.0,92,0.00,,,0.00,125.000000,,2013-08-18 14:53:00,
2013-08-18 10:22:00,70.0,66.0,-100.00,SSW,213,19.0,28.0,86,0.00,,,0.00,131.000000,,2013-08-18 15:22:00,
2013-08-18 10:33:00,70.0,66.0,-100.00,SSW,213,19.0,28.0,86,0.00,,,0.00,131.000000,,2013-08-18 15:33:00,
2013-08-18 10:43:00,70.0,66.0,-100.00,SSW,213,19.0,28.0,86,0.00,,,0.00,131.000000,,2013-08-18 15:43:00,
2013-08-18 10:53:00,70.0,66.0,-100.00,SSW,213,19.0,28.0,86,0.00,,,0.00,131.000000,,2013-08-18 15:53:00,
2013-08-18 11:23:00,72.0,66.0,-100.00,SSW,210,21.0,27.0,81,0.00,,,0.00,538.000000,,2013-08-18 16:23:00,
2013-08-18 11:33:00,72.0,66.0,-100.00,SSW,210,21.0,27.0,81,0.00,,,0.00,538.000000,,2013-08-18 16:33:00,
2013-08-18 11:42:00,72.0,66.0,-100.00,SSW,210,21.0,27.0,81,0.00,,,0.00,538.000000,,2013-08-18 16:42:00,
2013-08-18 11:52:00,72.0,66.0,-100.00,SSW,210,21.0,27.0,81,0.00,,,0.00,538.000000,,2013-08-18 16:52:00,
2013-08-18 12:23:00,73.0,67.0,-100.00,SW,214,19.0,26.0,81,0.00,,,0.00,628.000000,,2013-08-18 17:23:00,
2013-08-18 12:33:00,73.0,67.0,-100.00,SW,214,19.0,26.0,81,0.00,,,0.00,628.000000,,2013-08-18 17:33:00,
2013-08-18 12:42:00,73.0,67.0,-100.00,SW,214,19.0,26.0,81,0.00,,,0.00,628.000000,,2013-08-18 17:42:00,
2013-08-18 12:52:00,73.0,67.0,-100.00,SW,214,19.0,26.0,81,0.00,,,0.00,628.000000,,2013-08-18 17:52:00,
2013-08-18 13:21:00,76.0,69.0,-100.00,SW,216,19.0,27.0,79,0.00,,,0.00,683.000000,,2013-08-18 18:21:00,
2013-08-18 13:32:00,76.0,69.0,-100.00,SW,216,19.0,27.0,79,0.00,,,0.00,683.000000,,2013-08-18 18:32:00,
2013-08-18 13:42:00,76.0,69.0,-100.00,SW,216,19.0,27.0,79,0.00,,,0.00,683.000000,,2013-08-18 18:42:00,
2013-08-18 13:52:00,76.0,69.0,-100.00,SW,216,19.0,27.0,79,0.00,,,0.00,683.000000,,2013-08-18 18:52:00,
2013-08-18 14:22:00,77.0,68.0,-100.00,SSW,213,21.0,30.0,75,0.00,,,0.00,895.000000,,2013-08-18 19:22:00,
2013-08-18 14:32:00,77.0,68.0,-100.00,SSW,213,21.0,30.0,75,0.00,,,0.00,895.000000,,2013-08-18 19:32:00,
2013-08-18 14:42:00,77.0,68.0,-100.00,SSW,213,21.0,30.0,75,0.00,,,0.00,895.000000,,2013-08-18 19:42:00,
2013-08-18 14:52:00,77.0,68.0,-100.00,SSW,213,21.0,30.0,75,0.00,,,0.00,895.000000,,2013-08-18 19:52:00,
2013-08-18 15:22:00,78.0,69.0,-100.00,SW,216,20.0,29.0,73,0.00,,,0.00,773.000000,,2013-08-18 20:22:00,
2013-08-18 15:32:00,78.0,69.0,-100.00,SW,216,20.0,29.0,73,0.00,,,0.00,773.000000,,2013-08-18 20:32:00,
2013-08-18 15:42:00,78.0,69.0,-100.00,SW,216,20.0,29.0,73,0.00,,,0.00,773.000000,,2013-08-18 20:42:00,
2013-08-18 15:52:00,78.0,69.0,-100.00,SW,216,20.0,29.0,73,0.00,,,0.00,773.000000,,2013-08-18 20:52:00,
2013-08-18 16:22:00,79.0,69.0,-100.00,SW,222,20.0,28.0,71,0.00,,,0.00,786.000000,,2013-08-18 21:22:00,
2013-08-18 16:32:00,79.0,69.0,-100.00,SW,222,20.0,28.0,71,0.00,,,0.00,786.000000,,2013-08-18 21:32:00,
2013-08-18 16:42:00,79.0,69.0,-100.00,SW,222,20.0,28.0,71,0.00,,,0.00,786.000000,,2013-08-18 21:42:00,
2013-08-18 16:53:00,79.0,69.0,-100.00,SW,222,20.0,28.0,71,0.00,,,0.00,786.000000,,2013-08-18 21:53:00,
2013-08-18 17:23:00,78.0,69.0,-100.00,SW,232,18.0,27.0,74,0.00,,,-99.99,460.000000,,2013-08-18 22:23:00,
2013-08-18 17:34:00,78.0,69.0,-100.00,SW,232,18.0,27.0,74,0.00,,,-99.99,460.000000,,2013-08-18 22:34:00,
2013-08-18 17:42:00,78.0,69.0,-100.00,SW,232,18.0,27.0,74,0.00,,,-99.99,460.000000,,2013-08-18 22:42:00,
2013-08-18 17:52:00,78.0,69.0,-100.00,SW,232,18.0,27.0,74,0.00,,,-99.99,460.000000,,2013-08-18 22:52:00,
2013-08-18 18:22:00,76.0,69.0,-100.00,SSW,212,17.0,24.0,80,0.00,,,0.00,174.000000,,2013-08-18 23:22:00,
2013-08-18 18:33:00,76.0,69.0,-100.00,SSW,212,17.0,24.0,80,0.00,,,0.00,174.000000,,2013-08-18 23:33:00,
2013-08-18 18:42:00,76.0,69.0,-100.00,SSW,212,17.0,24.0,80,0.00,,,0.00,174.000000,,2013-08-18 23:42:00,
2013-08-18 18:52:00,76.0,69.0,-100.00,SSW,212,17.0,24.0,80,0.00,,,0.00,174.000000,,2013-08-18 23:52:00,
2013-08-18 19:21:00,75.0,71.0,-100.00,SSW,212,14.0,21.0,88,0.00,,,0.00,78.000000,,2013-08-19 00:21:00,
2013-08-18 19:32:00,75.0,71.0,-100.00,SSW,212,14.0,21.0,88,0.00,,,0.00,78.000000,,2013-08-19 00:32:00,
2013-08-18 19:42:00,75.0,71.0,-100.00,SSW,212,14.0,21.0,88,0.00,,,0.00,78.000000,,2013-08-19 00:42:00,
2013-08-18 19:52:00,75.0,71.0,-100.00,SSW,212,14.0,21.0,88,0.00,,,0.00,78.000000,,2013-08-19 00:52:00,
2013-08-18 20:22:00,74.0,71.0,-100.00,SW,220,11.0,17.0,89,0.00,,,0.00,40.000000,,2013-08-19 01:22:00,
2013-08-18 20:32:00,74.0,71.0,-100.00,SW,220,11.0,17.0,89,0.00,,,0.00,40.000000,,2013-08-19 01:32:00,
2013-08-18 20:42:00,74.0,71.0,-100.00,SW,220,11.0,17.0,89,0.00,,,0.00,40.000000,,2013-08-19 01:42:00,
2013-08-18 20:52:00,74.0,71.0,-100.00,SW,220,11.0,17.0,89,0.00,,,0.00,40.000000,,2013-08-19 01:52:00,
2013-08-18 21:22:00,72.0,70.0,-100.00,SW,223,12.0,19.0,94,0.00,,,0.00,16.000000,,2013-08-19 02:22:00,
2013-08-18 21:32:00,72.0,70.0,-100.00,SW,223,12.0,19.0,94,0.00,,,0.00,16.000000,,2013-08-19 02:32:00,
2013-08-18 21:42:00,72.0,70.0,-100.00,SW,223,12.0,19.0,94,0.00,,,0.00,16.000000,,2013-08-19 02:42:00,
2013-08-18 21:52:00,72.0,70.0,-100.00,SW,223,12.0,19.0,94,0.00,,,0.00,16.000000,,2013-08-19 02:52:00,
2013-08-18 22:21:00,71.0,71.0,-100.00,SW,220,12.0,17.0,100,0.00,,,0.00,0.000000,,2013-08-19 03:21:00,
2013-08-18 22:33:00,71.0,71.0,-100.00,SW,220,12.0,17.0,100,0.00,,,0.00,0.000000,,2013-08-19 03:33:00,
2013-08-18 22:42:00,71.0,71.0,-100.00,SW,220,12.0,17.0,100,0.00,,,0.00,0.000000,,2013-08-19 03:42:00,
2013-08-18 22:53:00,71.0,71.0,-100.00,SW,220,12.0,17.0,100,0.00,,,0.00,0.000000,,2013-08-19 03:53:00,
2013-08-18 23:23:00,71.0,71.0,-100.00,SW,219,14.0,19.0,100,0.00,,,0.00,0.000000,,2013-08-19 04:23:00,
2013-08-18 23:33:00,71.0,71.0,-100.00,SW,219,14.0,19.0,100,0.00,,,0.00,0.000000,,2013-08-19 04:33:00,
2013-08-18 23:42:00,71.0,71.0,-100.00,SW,219,14.0,19.0,100,0.00,,,0.00,0.000000,,2013-08-19 04:42:00,
2013-08-18 23:53:00,71.0,71.0,-100.00,SW,219,14.0,19.0,100,0.00,,,0.00,0.000000,,2013-08-19 04:53:00,